Perry, IA

2:33 AM CDT on March 28, 2017 (GMT -0500)
Perry Municipal

Weather History for KPRO - January, 2014

Change the Weather History Date:

Wednesday, January 29, 2014

  Actual Average Record
Temperature  
Mean Temperature 19 °F -  
Max Temperature 40 °F 28 °F 55 °F (1954)
Min Temperature -2 °F 9 °F -23 °F (1966)
Degree Days  
Heating Degree Days 46    
Moisture  
Dew Point 1 °F    
Average Humidity 46    
Maximum Humidity 73    
Minimum Humidity 20    
Precipitation  
Precipitation 0.00 in - - ()
Sea Level Pressure  
Sea Level Pressure 29.96 in    
Wind  
Wind Speed 12 mph (SSW)    
Max Wind Speed 26 mph    
Max Gust Speed 33 mph    
Visibility 10 miles    
Events      
Averages and records for this station are not official NWS values.
T = Trace of Precipitation, MM = Missing Value Source: NWS Daily Summary

Daily Weather History Graph

Daily Weather History Graph

Search for Another Location

Airport or City:

Trip Planner

Search our weather history database for the weather conditions in past years. The results will help you decide how hot, cold, wet, or windy it might be!

Date:

Astronomy

Jan. 29, 2014 Rise Set
Actual Time 7:31 AM CST 5:28 PM CST
Civil Twilight 7:02 AM CST 5:57 PM CST
Nautical Twilight 6:28 AM CST 6:31 PM CST
Astronomical Twilight 5:55 AM CST 7:04 PM CST
Moon 6:09 AM CST (1/29) 4:28 PM CST (1/29)
Length of Visible Light 10h 55m
Length of Day
9h 56m
Waning Crescent, 2% of the Moon is Illuminated
Jan 29
Waning Crescent
Jan 30
New
Feb 6
First Quarter
Feb 14
Full
Feb 22
Last Quarter

Hourly Weather History & Observations

Time (CST) Temp. Windchill Dew Point Humidity Pressure Visibility Wind Dir Wind Speed Gust Speed Precip Events Conditions
12:15 AM 1.8 °F -14.9 °F -8.9 °F 61% 30.21 in 10.0 mi SW 11.5 mph - N/A   Clear
12:35 AM 2.8 °F -12.7 °F -7.8 °F 61% 30.21 in 10.0 mi SW 10.4 mph - N/A   Clear
12:55 AM 1.4 °F -14.5 °F -8.5 °F 63% 30.21 in 10.0 mi SW 10.4 mph - N/A   Clear
1:15 AM 0.9 °F -14.2 °F -8.5 °F 65% 30.20 in 10.0 mi SW 9.2 mph - N/A   Clear
1:35 AM -0.0 °F -13.0 °F -9.2 °F 65% 30.20 in 10.0 mi WSW 6.9 mph - N/A   Clear
1:55 AM -1.3 °F -15.7 °F -9.8 °F 67% 30.20 in 10.0 mi SW 8.1 mph - N/A   Clear
2:15 AM -0.8 °F -13.9 °F -9.0 °F 68% 30.19 in 10.0 mi WSW 6.9 mph - N/A   Clear
2:35 AM -1.7 °F -9.7 °F -9.6 °F 69% 30.19 in 10.0 mi WSW 3.5 mph - N/A   Clear
2:55 AM -1.3 °F -14.5 °F -9.4 °F 69% 30.18 in 10.0 mi WSW 6.9 mph - N/A   Clear
3:15 AM -1.5 °F -16.0 °F -9.4 °F 69% 30.17 in 10.0 mi SW 8.1 mph - N/A   Clear
3:35 AM -2.2 °F -15.6 °F -9.9 °F 70% 30.16 in 10.0 mi WSW 6.9 mph - N/A   Clear
3:55 AM -0.9 °F -11.0 °F -9.0 °F 69% 30.16 in 10.0 mi WSW 4.6 mph - N/A   Clear
4:15 AM -1.5 °F - -9.2 °F 70% 30.16 in 10.0 mi Calm Calm - N/A   Clear
4:35 AM -1.1 °F - -8.9 °F 70% 30.15 in 10.0 mi Calm Calm - N/A   Clear
4:55 AM -0.9 °F -8.9 °F -8.7 °F 70% 30.15 in 10.0 mi SSW 3.5 mph - N/A   Clear
5:15 AM -0.8 °F -10.8 °F -8.7 °F 69% 30.14 in 10.0 mi SSW 4.6 mph - N/A   Clear
5:35 AM -2.4 °F -14.4 °F -9.6 °F 71% 30.13 in 10.0 mi SSW 5.8 mph - N/A   Clear
5:55 AM 0.1 °F -12.8 °F -7.6 °F 70% 30.13 in 10.0 mi South 6.9 mph - N/A   Clear
6:15 AM -0.6 °F -12.2 °F -8.0 °F 71% 30.12 in 10.0 mi South 5.8 mph - N/A   Clear
6:35 AM -1.8 °F -12.0 °F -8.7 °F 73% 30.12 in 10.0 mi South 4.6 mph - N/A   Clear
6:55 AM -0.4 °F -10.4 °F -8.0 °F 70% 30.11 in 10.0 mi South 4.6 mph - N/A   Clear
7:15 AM -0.4 °F - -7.8 °F 71% 30.12 in 10.0 mi Calm Calm - N/A   Clear
7:55 AM 0.5 °F -12.3 °F -7.2 °F 70% 30.11 in 10.0 mi South 6.9 mph - N/A   Clear
8:15 AM 3.7 °F -8.4 °F -4.2 °F 70% 30.10 in 10.0 mi South 6.9 mph - N/A   Clear
8:35 AM 7.9 °F -5.5 °F -1.1 °F 67% 30.09 in 10.0 mi South 9.2 mph - N/A   Clear
8:55 AM 10.9 °F -1.8 °F 0.9 °F 64% 30.08 in 10.0 mi SSW 9.2 mph - N/A   Clear
9:15 AM 13.8 °F 1.0 °F 1.6 °F 58% 30.08 in 10.0 mi SSW 10.4 mph - N/A   Clear
9:35 AM 17.1 °F 4.3 °F 3.0 °F 54% 30.07 in 10.0 mi SSW 11.5 mph - N/A   Clear
9:55 AM 20.1 °F 7.5 °F 3.0 °F 48% 30.08 in 10.0 mi SW 12.7 mph - N/A   Clear
10:15 AM 21.7 °F 10.8 °F 3.0 °F 45% 30.06 in 10.0 mi SSW 10.4 mph - N/A   Clear
10:35 AM 25.0 °F 12.6 °F 2.8 °F 39% 30.06 in 10.0 mi SSW 15.0 mph - N/A   Clear
10:55 AM 27.3 °F 16.1 °F 2.5 °F 35% 30.05 in 10.0 mi SSW 13.8 mph - N/A   Clear
11:15 AM 28.9 °F 17.3 °F 1.4 °F 31% 30.04 in 10.0 mi SSW 16.1 mph - N/A   Clear
11:35 AM 30.9 °F 18.7 °F 1.4 °F 28% 30.02 in 10.0 mi SSW 19.6 mph 23.0 mph N/A   Clear
11:55 AM 32.0 °F 19.8 °F 1.0 °F 27% 30.01 in 10.0 mi SSW 20.7 mph 25.3 mph N/A   Clear
12:15 PM 32.7 °F 20.4 °F 0.9 °F 26% 29.99 in 10.0 mi SSW 21.9 mph 28.8 mph N/A   Clear
12:35 PM 34.3 °F 22.9 °F -0.0 °F 23% 29.98 in 10.0 mi SSW 20.7 mph 26.5 mph N/A   Clear
12:55 PM 35.2 °F 24.4 °F 0.3 °F 23% 29.96 in 10.0 mi SSW 19.6 mph - N/A   Clear
1:15 PM 36.7 °F 25.7 °F 0.5 °F 22% 29.94 in 10.0 mi SSW 21.9 mph 28.8 mph N/A   Clear
1:35 PM 37.8 °F 26.6 °F 1.4 °F 22% 29.92 in 10.0 mi SSW 24.2 mph 28.8 mph N/A   Clear
1:55 PM 38.5 °F 27.5 °F 1.4 °F 21% 29.91 in 10.0 mi SW 24.2 mph 32.2 mph N/A   Clear
2:15 PM 39.0 °F 28.3 °F 1.6 °F 21% 29.89 in 10.0 mi SSW 24.2 mph 31.1 mph N/A   Clear
2:35 PM 39.6 °F 29.0 °F 2.1 °F 21% 29.87 in 10.0 mi SSW 24.2 mph 29.9 mph N/A   Clear
2:55 PM 40.3 °F 29.5 °F 1.8 °F 20% 29.87 in 10.0 mi SSW 26.5 mph 29.9 mph N/A   Clear
3:15 PM 40.3 °F 29.9 °F 1.6 °F 20% 29.86 in 10.0 mi SSW 24.2 mph 33.4 mph N/A   Clear
3:35 PM 40.5 °F 30.2 °F 3.4 °F 21% 29.84 in 10.0 mi SSW 24.2 mph 29.9 mph N/A   Clear
3:55 PM 40.1 °F 29.9 °F 5.2 °F 24% 29.83 in 10.0 mi SSW 23.0 mph - N/A   Clear
4:15 PM 39.7 °F 29.5 °F 6.8 °F 26% 29.82 in 10.0 mi SSW 23.0 mph 29.9 mph N/A   Clear
4:35 PM 39.2 °F 28.7 °F 7.2 °F 27% 29.81 in 10.0 mi South 23.0 mph 27.6 mph N/A   Clear
4:55 PM 38.3 °F 29.0 °F 7.3 °F 28% 29.81 in 10.0 mi South 17.3 mph 26.5 mph N/A   Clear
5:15 PM 36.9 °F 27.1 °F 7.5 °F 30% 29.81 in 10.0 mi South 17.3 mph 25.3 mph N/A   Clear
5:35 PM 36.0 °F 25.6 °F 7.9 °F 31% 29.80 in 10.0 mi South 18.4 mph 25.3 mph N/A   Clear
5:55 PM 34.7 °F 24.0 °F 8.6 °F 34% 29.79 in 10.0 mi South 18.4 mph - N/A   Clear
6:15 PM 34.0 °F 23.0 °F 9.1 °F 36% 29.78 in 10.0 mi South 18.4 mph - N/A   Clear
6:35 PM 33.8 °F 22.8 °F 9.5 °F 36% 29.77 in 10.0 mi South 18.4 mph - N/A   Clear
6:55 PM 33.8 °F 22.2 °F 9.9 °F 37% 29.76 in 10.0 mi South 20.7 mph - N/A   Clear
7:15 PM 33.1 °F 22.6 °F 10.2 °F 39% 29.75 in 10.0 mi South 16.1 mph - N/A   Clear
7:35 PM 32.7 °F 21.1 °F 10.4 °F 40% 29.75 in 10.0 mi South 19.6 mph 25.3 mph N/A   Clear
7:55 PM 33.1 °F 21.2 °F 10.4 °F 39% 29.74 in 10.0 mi South 20.7 mph 26.5 mph N/A   Clear
8:15 PM 33.3 °F 21.5 °F 9.7 °F 37% 29.72 in 10.0 mi South 20.7 mph 26.5 mph N/A   Clear
8:35 PM 33.8 °F 21.6 °F 9.1 °F 36% 29.72 in 10.0 mi SSW 23.0 mph 28.8 mph N/A   Clear
8:55 PM 33.4 °F 22.0 °F 8.8 °F 36% 29.71 in 10.0 mi South 19.6 mph 28.8 mph N/A   Clear
9:15 PM 32.9 °F 21.0 °F 9.0 °F 37% 29.70 in 10.0 mi SSW 20.7 mph - N/A   Clear
9:35 PM 32.9 °F 21.3 °F 8.6 °F 36% 29.70 in 10.0 mi SSW 19.6 mph 24.2 mph N/A   Clear
9:55 PM 32.4 °F 21.7 °F 8.6 °F 37% 29.70 in 10.0 mi SSW 16.1 mph 23.0 mph N/A   Clear
10:15 PM 32.2 °F 20.7 °F 8.6 °F 37% 29.69 in 10.0 mi South 18.4 mph 25.3 mph N/A   Clear
10:35 PM 32.0 °F 20.1 °F 8.6 °F 38% 29.69 in 10.0 mi South 19.6 mph 24.2 mph N/A   Clear
10:55 PM 32.5 °F 20.8 °F 8.2 °F 36% 29.67 in 10.0 mi SSW 19.6 mph 27.6 mph N/A   Clear
11:15 PM 33.1 °F 20.9 °F 7.7 °F 35% 29.66 in 10.0 mi SSW 21.9 mph - N/A   Clear
11:35 PM 33.1 °F 20.3 °F 7.9 °F 35% 29.66 in 10.0 mi SSW 24.2 mph 31.1 mph N/A   Clear
11:55 PM 34.0 °F 21.8 °F 7.5 °F 33% 29.64 in 10.0 mi SSW 23.0 mph 29.9 mph N/A   Clear